Mansfield Lahm Regional Airport Mansfield US
ICAO: KMFD
IATA: MFD
Category: Medium
Scheduled Services: No

Elevation: 1297 ft
TransAlt. 18000 ft.

Airport Communications:
APP/DEP:124.2
ATIS:125.3
CTAF:119.8
GND:121.8
HERC COMD POST:29.75
CLEVELAND RDO:122.6
TWR:119.8
UNICOM:122.95

KMFD Zoom In..

Runways:

(A) RW 05 length 6800 ft width 150 ft
---- / hdg 53

(B) RW 14 length 9001 ft width 150 ft
---- / hdg 143

(C) RW 23 length 6800 ft width 150 ft
---- / hdg 233

(D) RW 32 length 9001 ft width 150 ft
ILS 110.50 / hdg 323

Location; KMFD
Day. 22 / Time. 01.52 Zulu
* Altimeter: 30.06
* Temperature: 18° c. 64.4°f.
* Wind from: 110° Speed 09 kn.
Dewpoint: 17° c.
Visibility: 7 Statute Miles.
Clouds: Scattered 9000 ft.
Clouds: Overcast 11000 ft.
Conditions: Rain.

KMFD 220152Z 11009KT 7SM RA SCT090 OVC110 18/17 A3006 RMK AO2 WSHFT 0100 LTG DSNT E-SW TSE22 SLP176 P0019 T01830167


Wind From 110°
Speed 09 kn.

 
 
jpsmedia.com for Web Design SOUNDCLOUD worldairports.se 2018   terms of use